x

Shumagin Islands - 85nm South Of Sand Point, Ak (46075) Wave Buoy

5:50 - Tue 27th Sep 2016 All times are UTC.

  • Sig Wave height 9.2ft
  • Swell Direction
  • Peak Period 10s
  • Average Period 7s
  • Wind
    20mph, 25mph gusts
  • Sea Temp 52°f
  • Air Temp 52°f
  • Sea Pressure 1013.8mb

More Historic Weather Station data

Upgrade to MSW Pro to gain access to the past 30 days of data for over 8000 Wavebouys and Weather Stations around the globe.

Join Pro

Comparision Forecast

View Surf forecast
   
mar. 09/27 5:50 9ft 10s 7s 20 25 mph 1013.8mb 52f 52f
4:50 9.5ft 9s 7s 20 25 mph 1012.7mb 52f 52f
3:50 10.5ft 10s 7s 22 27 mph 1011.8mb 52f 52f
2:50 10ft 9s 7s 18 22 mph 1011.3mb 52f 52f
1:50 11ft 10s 7s 22 27 mph 1010.7mb 52f 52f
12:50 11ft 10s 7s 25 29 mph 1010.6mb 52f 51f
lun. 09/26 11:50 11ft 10s 7s 25 31 mph 1010.3mb 51f 51f
10:50 10ft 10s 7s 27 34 mph 1010.5mb 52f 50f
9:50 10.5ft 9s 7s 25 29 mph 1010.6mb 52f 52f
8:50 10ft 9s 7s 25 29 mph 1010.5mb 53f 52f
7:50 10.5ft 8s  -  20 27 mph 1010.4mb 53f 52f
6:50 9ft 9s 7s 22 27 mph 1009.9mb 53f 52f
5:50 9ft 8s 7s 25 27 mph 1009.5mb 53f 52f
4:50 8ft 8s 6s 25 29 mph 1009.3mb 54f 52f
3:50 8ft 7s 6s 20 29 mph 1009.6mb 54f 50f
2:50 7ft 7s 6s 27 36 mph 1010.2mb 53f 51f
1:50 6ft 6s 6s 25 29 mph 1011.4mb 54f 51f
12:50 6ft 6s 6s 22 27 mph 1012.5mb 53f 51f
11:50 5ft 6s 5s 20 25 mph 1013.9mb 53f 52f
10:50 4.5ft 16s 6s 18 22 mph 1014.8mb 53f 52f
9:50 4.5ft 16s 5s 13 18 mph 1016mb 53f 50f
8:50 4.5ft 16s 5s 16 20 mph 1016.4mb 54f 51f
7:50 4.5ft 16s 6s 18 22 mph 1017mb 54f 51f
6:50 4.5ft 17s 6s 13 18 mph 1017.7mb 54f 51f
5:50 4ft 17s 6s 13 16 mph 1018.2mb 54f 51f
4:50 4.5ft 8s 6s 18 20 mph 1018.3mb 54f 51f
3:50 4.5ft 17s 6s 16 18 mph 1018.6mb 54f 51f
2:50 4ft 16s 6s 16 20 mph 1018.7mb 54f 51f
1:50 4.5ft 17s 6s 16 20 mph 1019.1mb 54f 51f
12:50 4ft 17s 6s 16 18 mph 1019.4mb 54f 51f
dim. 09/25 11:50 4ft 16s 6s 13 16 mph 1019.8mb 54f 50f
10:50 4ft 17s 6s 11 16 mph 1020.2mb 54f 50f
9:50 4.5ft 9s 6s 11 13 mph 1020.4mb 54f 50f
8:50 4.5ft 9s 6s 9 13 mph 1020.3mb 53f 50f
7:50 4.5ft 6s 6s 9 13 mph 1019.9mb 53f 50f
6:50 4.5ft 16s 6s 13 18 mph 1019.7mb 53f 49f
5:50 4.5ft 8s 6s 11 13 mph 1019.2mb 53f 50f
4:50 4.5ft 16s 6s 13 16 mph 1018.9mb 53f 50f
3:50 4.5ft 16s 6s 13 18 mph 1018.6mb 53f 50f
2:50 5ft 17s 6s 13 18 mph 1018.4mb 53f 50f
1:50 5ft 7s 6s 11 13 mph 1018.2mb 53f 50f
12:50 5ft 7s 6s 13 18 mph 1018mb 53f 50f
11:50 5ft 7s 6s 18 20 mph 1017.8mb 53f 50f
10:50 5ft 8s 6s 16 20 mph 1017.4mb 53f 50f
9:50 5ft 8s 6s 13 16 mph 1017.3mb 53f 50f
8:50 4.5ft 8s 6s 13 18 mph 1016.9mb 53f 51f
7:50 4.5ft 17s 6s 16 18 mph 1016.4mb 53f 51f
6:50 5ft 6s 5s 18 20 mph 1016.1mb 53f 51f
5:50 5ft 6s 6s 18 22 mph 1015.5mb 53f 51f
4:50 4.5ft 8s 6s 18 20 mph 1014.9mb 53f 51f
3:50 4.5ft 8s 6s 16 18 mph 1014.6mb 53f 51f
2:50 4.5ft 8s 6s 16 20 mph 1014.2mb 53f 51f
1:50 5ft 8s 6s 16 20 mph 1014.1mb 53f 51f
12:50 4.5ft 8s 6s 13 16 mph 1013.7mb 54f 51f
sam. 09/24 11:50 4.5ft 8s 6s 11 16 mph 1013.5mb 53f 51f
10:50 5ft 8s 6s 13 16 mph 1013.1mb 53f 51f
9:50 5ft 8s 6s 13 16 mph 1012.8mb 53f 51f
8:50 5ft 8s 6s 11 13 mph 1012.4mb 53f 51f
7:50 4.5ft 9s 6s 7 9 mph 1012mb 53f 51f
6:50 4.5ft 8s 6s 9
mph
1011.5mb 53f 51f
5:50 4.5ft 9s 6s 9 13 mph 1010.7mb 53f 51f
4:50 5ft 8s 6s 11 13 mph 1010mb 53f 51f
3:50 4.5ft 8s 6s 11 13 mph 1009.3mb 53f 51f
2:50 4.5ft 8s 6s 11 13 mph 1008.7mb 53f 51f
1:50 5.5ft 9s 7s 13 16 mph 1008.2mb 53f 51f
12:50 6ft 9s 7s 11 13 mph 1007.7mb 53f 52f
11:50 5.5ft 8s 7s 7 9 mph 1007.3mb 53f 52f
10:50 5.5ft 9s 6s 7 9 mph 1006.9mb 53f 51f
9:50 6ft 9s 7s 11 13 mph 1006.4mb 53f 52f
8:50 6ft 8s 7s 13 16 mph 1005.8mb 53f 52f
7:50 6ft 9s 7s 16 18 mph 1005.3mb 53f 52f
6:50 6ft 9s 7s 16 18 mph 1004.7mb 54f 52f
5:50 5.5ft 9s 6s 16 18 mph 1004.1mb 54f 52f
4:50 5.5ft 8s 6s 16 18 mph 1003.3mb 54f 51f
3:50 5ft 8s 6s 16 18 mph 1002.7mb 54f 51f
2:50 6ft 8s 6s 16 18 mph 1002.3mb 54f 51f
1:50 6ft 8s 6s 16 18 mph 1001.9mb 54f 52f
12:50 6ft 8s 6s 13 16 mph 1001.6mb 54f 52f
ven. 09/23 11:50 6ft 9s 6s 13 16 mph 1001.4mb 54f 51f
10:50 5.5ft 8s 6s 13 16 mph 1001.3mb 53f 52f
9:50 6.5ft 8s 7s 11 13 mph 1001.1mb 53f 51f
8:50 6ft 9s 6s 11 16 mph 1000.6mb 53f 52f
7:50 6.5ft 8s 7s 11 16 mph 1000.1mb 54f 51f
5:50 6ft 9s 6s 11 16 mph 999.2mb 53f 52f
4:50 6ft 8s 7s 13 18 mph 998.7mb 53f 52f
3:50 6.5ft 8s 6s 11 13 mph 998.4mb 53f 51f
2:50 6.5ft 8s 6s 13 16 mph 998.1mb 53f 52f
12:50 8ft 9s 7s 16 20 mph 997.9mb 53f 51f
11:50 8ft 8s 6s 18 20 mph 997.7mb 53f 51f
10:50 8.5ft 9s 7s 18 22 mph 997.6mb 53f 51f
9:50 9ft 9s 7s 20 22 mph 997.3mb 53f 52f
8:50 8.5ft 9s 7s 20 22 mph 996.9mb 54f 52f
7:50 9ft 9s 7s 18 22 mph 996.8mb 54f 51f